Mount Weather, Virginia
Current Conditions -  °F | °C
As of 3:15 PM on Sunday 21 Dec 2014 (Local Time) from KOKV Reporting Station
Clear Clear  
Wind Chill: 41°   Ceiling: Unl
Heat Index: 41°   Visibility: 10mi
Dew Point: 21°   Wind: 0mph
Humidity: 45%   Direction: NA
Pressure: 30.25"   Gusts: NA
Location:  39.1657°N, 77.9844°W
Report Text: KOKV 212015Z AUTO 00000KT 10SM CLR 05/M06 A3025 RMK AO2
Loading
Personal Weather Stations






























Interactive Weather Map New forecast layout! Learn more

10-Day Weather Forecast

Advertisements
Track Severe Weather on mobile